PWSweather.com
Personal Weather Stations
Station Observations
SANDHURSTWX
SandhurstGB

SandhurstGB

Lat: 51.3522, Lon: -0.7739

Elevation: 272.3

Station Type: Davis VP2

www.sandhurstweather.org.uk

High Low Average
Temperature 54.1°F12.3°C 44.0°F6.7°C 49.2°F9.6°C
Dew Point 53.2°F11.8°C 41.3°F5.2°C 47.7°F8.7°C
Winds 19.6 mph 31.5 kmh 4.6 mph 7.4 kmh 10.0 mph S16.1 kmh S
Wind Gusts 25.3 mph40.7 kmh 5.8 mph9.3 kmh 14.0 mph22.5 kmh
Humidity 97% 88% 95%
Pressure 29.48 in998.3 mb 29.32 in992.9 mb -
Precipitation 0.24 in6.1 mm - -
Hour Temp Dew Point Humidity Winds Wind Gusts Pressure Precip Precip Rate Daily Precip Total
12:00 AM 44.3°F6.8°C 43.0°F6.1°C 95% 5.8 mph SSW9.3 kmh SSW 9.2 mph14.8 kmh 29.44 in997.0 mb - 0.00 in0.0 mm 0.00 in0.0 mm
01:00 AM 44.6°F7.0°C 43.3°F6.3°C 95% 4.6 mph WSW7.4 kmh WSW 8.1 mph13.0 kmh 29.44 in997.0 mb - 0.02 in0.5 mm 0.02 in0.5 mm
02:00 AM 44.9°F7.2°C 43.8°F6.6°C 96% 5.8 mph S9.3 kmh S 5.8 mph9.3 kmh 29.43 in996.6 mb - 0.02 in0.5 mm 0.04 in1.0 mm
03:00 AM 44.7°F7.1°C 43.4°F6.3°C 95% 4.6 mph S7.4 kmh S 5.8 mph9.3 kmh 29.45 in997.3 mb - 0.01 in0.3 mm 0.05 in1.3 mm
04:00 AM 45.5°F7.5°C 43.9°F6.6°C 94% 4.6 mph SSW7.4 kmh SSW 6.9 mph11.1 kmh 29.45 in997.3 mb - 0.00 in0.0 mm 0.05 in1.3 mm
05:00 AM 44.5°F6.9°C 42.9°F6.1°C 94% 6.9 mph S11.1 kmh S 8.1 mph13.0 kmh 29.46 in997.6 mb - 0.00 in0.0 mm 0.05 in1.3 mm
06:00 AM 44.0°F6.7°C 41.3°F5.2°C 90% 4.6 mph SSW7.4 kmh SSW 6.9 mph11.1 kmh 29.48 in998.3 mb - 0.00 in0.0 mm 0.05 in1.3 mm
07:00 AM 45.2°F7.3°C 41.9°F5.5°C 88% 6.9 mph S11.1 kmh S 16.1 mph25.9 kmh 29.48 in998.3 mb - 0.00 in0.0 mm 0.05 in1.3 mm
08:00 AM 44.4°F6.9°C 41.9°F5.5°C 91% 9.2 mph S14.8 kmh S 8.1 mph13.0 kmh 29.48 in998.3 mb - 0.00 in0.0 mm 0.05 in1.3 mm
09:00 AM 46.0°F7.8°C 44.4°F6.9°C 94% 6.9 mph S11.1 kmh S 6.9 mph11.1 kmh 29.47 in998.0 mb - 0.00 in0.0 mm 0.05 in1.3 mm
10:00 AM 48.2°F9.0°C 45.9°F7.7°C 92% 9.2 mph S14.8 kmh S 12.7 mph20.4 kmh 29.45 in997.3 mb - 0.00 in0.0 mm 0.05 in1.3 mm
11:00 AM 48.7°F9.3°C 46.5°F8.1°C 92% 12.7 mph S20.4 kmh S 15.0 mph24.1 kmh 29.42 in996.3 mb - 0.00 in0.0 mm 0.05 in1.3 mm
12:00 PM 49.3°F9.6°C 47.7°F8.7°C 94% 11.5 mph SE18.5 kmh SE 16.1 mph25.9 kmh 29.37 in994.6 mb - 0.00 in0.0 mm 0.05 in1.3 mm
01:00 PM 51.5°F10.8°C 50.7°F10.4°C 97% 13.8 mph S22.2 kmh S 19.6 mph31.5 kmh 29.33 in993.2 mb - 0.03 in0.8 mm 0.08 in2.0 mm
02:00 PM 53.8°F12.1°C 53.0°F11.7°C 97% 16.1 mph S25.9 kmh S 16.1 mph25.9 kmh 29.32 in992.9 mb - 0.00 in0.0 mm 0.08 in2.0 mm
03:00 PM 54.1°F12.3°C 53.2°F11.8°C 97% 13.8 mph S22.2 kmh S 17.3 mph27.8 kmh 29.32 in992.9 mb - 0.02 in0.5 mm 0.10 in2.5 mm
04:00 PM 54.0°F12.2°C 53.2°F11.8°C 97% 15.0 mph S24.1 kmh S 24.2 mph38.9 kmh 29.32 in992.9 mb - 0.02 in0.5 mm 0.12 in3.0 mm
05:00 PM 54.0°F12.2°C 52.9°F11.6°C 96% 15.0 mph S24.1 kmh S 17.3 mph27.8 kmh 29.32 in992.9 mb - 0.01 in0.3 mm 0.13 in3.3 mm
06:00 PM 53.9°F12.2°C 52.8°F11.6°C 96% 15.0 mph S24.1 kmh S 17.3 mph27.8 kmh 29.34 in993.6 mb - 0.01 in0.3 mm 0.13 in3.3 mm
07:00 PM 53.3°F11.8°C 52.5°F11.4°C 97% 19.6 mph S31.5 kmh S 25.3 mph40.7 kmh 29.35 in993.9 mb - 0.02 in0.5 mm 0.16 in4.1 mm
08:00 PM 53.1°F11.7°C 52.3°F11.3°C 97% 12.7 mph S20.4 kmh S 19.6 mph31.5 kmh 29.37 in994.6 mb - 0.02 in0.5 mm 0.17 in4.3 mm
09:00 PM 53.1°F11.7°C 51.9°F11.1°C 96% 16.1 mph SSW25.9 kmh SSW 18.4 mph29.6 kmh 29.38 in994.9 mb - 0.02 in0.5 mm 0.19 in4.8 mm
10:00 PM 52.6°F11.4°C 51.5°F10.8°C 96% 10.4 mph SSW16.7 kmh SSW 12.7 mph20.4 kmh 29.41 in995.9 mb - 0.02 in0.5 mm 0.20 in5.1 mm
11:00 PM 52.3°F11.3°C 51.2°F10.7°C 96% 10.4 mph SSW16.7 kmh SSW 16.1 mph25.9 kmh 29.42 in996.3 mb - 0.05 in1.3 mm 0.24 in6.1 mm